createdAt,value
2018-10-05T00:02:18.468Z,8.60
2018-10-05T00:04:46.910Z,8.60
2018-10-05T00:07:15.978Z,8.50
2018-10-05T00:09:44.466Z,8.50
2018-10-05T00:12:12.931Z,8.50
2018-10-05T00:14:42.748Z,8.40
2018-10-05T00:17:11.921Z,8.40
2018-10-05T00:19:40.375Z,8.30
2018-10-05T00:22:09.205Z,8.30
2018-10-05T00:24:39.687Z,8.30
2018-10-05T00:27:14.113Z,8.30
2018-10-05T00:29:50.619Z,8.30
2018-10-05T00:32:23.543Z,8.20
2018-10-05T00:34:58.519Z,8.20
2018-10-05T00:37:28.195Z,8.20
2018-10-05T00:40:01.444Z,8.20
2018-10-05T00:42:36.991Z,8.20
2018-10-05T00:45:09.165Z,8.10
2018-10-05T00:47:40.182Z,8.10
2018-10-05T00:50:14.590Z,8.20
2018-10-05T00:52:45.810Z,8.20
2018-10-05T00:55:19.329Z,8.10
2018-10-05T00:57:52.940Z,8.10
2018-10-05T01:00:28.128Z,8.10
2018-10-05T01:03:08.127Z,8.10
2018-10-05T01:05:39.400Z,8.00
2018-10-05T01:08:14.126Z,8.00
2018-10-05T01:10:57.094Z,8.00
2018-10-05T01:13:30.678Z,7.90
2018-10-05T01:15:59.741Z,7.90
2018-10-05T01:18:28.213Z,7.90
2018-10-05T01:20:57.321Z,7.90
2018-10-05T01:23:26.920Z,7.90
2018-10-05T01:25:58.125Z,7.90
2018-10-05T01:28:31.122Z,7.80
2018-10-05T01:31:05.706Z,7.80
2018-10-05T01:33:34.146Z,7.80
2018-10-05T01:36:06.612Z,7.70
2018-10-05T01:38:37.854Z,7.70
2018-10-05T01:41:17.346Z,7.70
2018-10-05T01:43:58.708Z,7.70
2018-10-05T01:46:33.757Z,7.70
2018-10-05T01:49:09.378Z,7.60
2018-10-05T01:51:44.265Z,7.60
2018-10-05T01:54:19.810Z,7.60
2018-10-05T01:56:55.958Z,7.60
2018-10-05T02:02:51.856Z,7.60
2018-10-05T02:05:33.384Z,7.50
2018-10-05T02:08:04.258Z,7.50
2018-10-05T02:10:43.496Z,7.50
2018-10-05T02:13:19.583Z,7.50
2018-10-05T02:15:54.851Z,7.40
2018-10-05T02:18:34.039Z,7.40
2018-10-05T02:21:20.348Z,7.40
2018-10-05T02:23:57.167Z,7.40
2018-10-05T02:26:29.599Z,7.40
2018-10-05T02:29:04.042Z,7.40
2018-10-05T02:31:43.719Z,7.40
2018-10-05T02:34:24.062Z,7.30
2018-10-05T02:36:59.344Z,7.30
2018-10-05T02:39:39.309Z,7.30
2018-10-05T02:42:12.268Z,7.30
2018-10-05T02:44:48.216Z,7.20
2018-10-05T02:47:22.162Z,7.20
2018-10-05T02:50:02.560Z,7.20
2018-10-05T02:52:48.138Z,7.20
2018-10-05T02:55:28.207Z,7.20
2018-10-05T02:58:06.359Z,7.20
2018-10-05T03:03:31.868Z,7.20
2018-10-05T03:06:00.285Z,7.20
2018-10-05T03:08:28.750Z,7.10
2018-10-05T03:10:57.196Z,7.10
2018-10-05T03:13:25.821Z,7.10
2018-10-05T03:15:57.470Z,7.10
2018-10-05T03:18:27.207Z,7.10
2018-10-05T03:21:08.575Z,7.10
2018-10-05T03:23:52.313Z,7.00
2018-10-05T03:26:25.237Z,7.00
2018-10-05T03:29:02.658Z,7.00
2018-10-05T03:31:37.185Z,7.00
2018-10-05T03:34:12.737Z,7.00
2018-10-05T03:36:50.834Z,7.00
2018-10-05T03:39:21.138Z,7.00
2018-10-05T03:41:53.696Z,6.90
2018-10-05T03:44:26.423Z,6.90
2018-10-05T03:46:54.972Z,6.80
2018-10-05T03:49:23.414Z,6.80
2018-10-05T03:51:51.958Z,6.80
2018-10-05T03:54:22.004Z,6.80
2018-10-05T03:56:54.967Z,6.80
2018-10-05T03:59:30.570Z,6.80
2018-10-05T04:02:05.375Z,6.80
2018-10-05T04:04:39.314Z,6.80
2018-10-05T04:10:01.756Z,6.80
2018-10-05T04:12:33.764Z,6.70
2018-10-05T04:15:11.557Z,6.70
2018-10-05T04:17:44.879Z,6.70
2018-10-05T04:23:08.698Z,6.60
2018-10-05T04:25:38.657Z,6.60
2018-10-05T04:28:08.019Z,6.60
2018-10-05T04:30:40.398Z,6.60
2018-10-05T04:33:23.763Z,6.60
2018-10-05T04:36:06.602Z,6.60
2018-10-05T04:38:40.791Z,6.60
2018-10-05T04:41:22.796Z,6.60
2018-10-05T04:43:59.854Z,6.60
2018-10-05T04:46:32.202Z,6.60
2018-10-05T04:49:01.288Z,6.60
2018-10-05T04:51:29.726Z,6.50
2018-10-05T04:53:58.878Z,6.60
2018-10-05T04:56:27.523Z,6.60
2018-10-05T04:58:55.847Z,6.60
2018-10-05T05:01:24.393Z,6.50
2018-10-05T05:03:52.847Z,6.60
2018-10-05T05:06:21.443Z,6.70
2018-10-05T05:08:49.967Z,6.70
2018-10-05T05:11:18.845Z,6.80
2018-10-05T05:13:48.142Z,6.80
2018-10-05T05:16:16.579Z,6.80
2018-10-05T05:18:45.078Z,6.80
2018-10-05T05:21:13.493Z,6.70
2018-10-05T05:23:42.404Z,6.70
2018-10-05T05:26:10.966Z,6.70
2018-10-05T05:28:39.452Z,6.70
2018-10-05T05:31:08.704Z,6.70
2018-10-05T05:33:37.307Z,6.70
2018-10-05T05:36:06.189Z,6.70
2018-10-05T05:38:34.680Z,6.70
2018-10-05T05:41:03.249Z,6.70
2018-10-05T05:43:31.801Z,6.70
2018-10-05T05:46:00.578Z,6.70
2018-10-05T05:48:29.236Z,6.70
2018-10-05T05:50:59.230Z,6.70
2018-10-05T05:53:28.263Z,6.70
2018-10-05T05:55:56.861Z,6.80
2018-10-05T05:58:25.356Z,7.00
2018-10-05T06:00:53.856Z,7.20
2018-10-05T06:03:22.354Z,7.40
2018-10-05T06:05:50.918Z,7.50
2018-10-05T06:08:19.388Z,7.60
2018-10-05T06:10:48.530Z,7.70
2018-10-05T06:13:17.835Z,7.80
2018-10-05T06:15:46.323Z,8.00
2018-10-05T06:18:15.645Z,8.00
2018-10-05T06:20:44.138Z,8.20
2018-10-05T06:23:12.562Z,8.30
2018-10-05T06:25:41.014Z,8.40
2018-10-05T06:28:09.879Z,8.50
2018-10-05T06:30:38.569Z,8.50
2018-10-05T06:33:07.120Z,8.60
2018-10-05T06:35:35.691Z,8.70
2018-10-05T06:38:04.631Z,8.80
2018-10-05T06:40:33.205Z,8.90
2018-10-05T06:43:01.797Z,8.80
2018-10-05T06:45:30.231Z,8.80
2018-10-05T06:47:58.810Z,8.80
2018-10-05T06:50:27.359Z,8.80
2018-10-05T06:52:55.842Z,8.90
2018-10-05T06:55:24.614Z,8.90
2018-10-05T06:57:53.061Z,9.00
2018-10-05T07:00:21.598Z,9.10
2018-10-05T07:02:50.082Z,9.20
2018-10-05T07:05:18.575Z,9.20
2018-10-05T07:07:48.077Z,9.30
2018-10-05T07:10:16.520Z,9.40
2018-10-05T07:12:45.219Z,9.50
2018-10-05T07:15:13.730Z,9.50
2018-10-05T07:17:42.361Z,9.70
2018-10-05T07:20:10.952Z,9.70
2018-10-05T07:22:40.384Z,9.90
2018-10-05T07:25:08.954Z,9.90
2018-10-05T07:27:37.698Z,10.10
2018-10-05T07:30:07.610Z,10.20
2018-10-05T07:32:36.325Z,10.40
2018-10-05T07:35:04.865Z,10.50
2018-10-05T07:37:33.513Z,10.60
2018-10-05T07:40:02.390Z,10.80
2018-10-05T07:42:31.049Z,10.90
2018-10-05T07:45:00.929Z,11.00
2018-10-05T07:47:29.962Z,11.00
2018-10-05T07:49:58.604Z,11.10
2018-10-05T07:52:27.158Z,11.30
2018-10-05T07:54:55.755Z,11.30
2018-10-05T07:57:24.206Z,11.40
2018-10-05T07:59:54.269Z,11.50
2018-10-05T08:02:23.500Z,11.70
2018-10-05T08:04:52.184Z,11.80
2018-10-05T08:07:20.754Z,11.80
2018-10-05T08:09:49.337Z,11.90
2018-10-05T08:12:42.082Z,12.00
2018-10-05T08:15:10.598Z,12.10
2018-10-05T08:17:42.553Z,12.20
2018-10-05T08:20:11.821Z,12.40
2018-10-05T08:22:42.182Z,12.50
2018-10-05T08:25:10.703Z,12.60
2018-10-05T08:27:39.426Z,12.70
2018-10-05T08:30:11.109Z,12.80
2018-10-05T08:32:45.390Z,12.90
2018-10-05T08:35:32.589Z,13.00
2018-10-05T08:38:13.800Z,13.10
2018-10-05T08:40:56.984Z,13.20
2018-10-05T08:43:26.349Z,13.30
2018-10-05T08:45:59.986Z,13.40
2018-10-05T08:48:29.531Z,13.50
2018-10-05T08:50:58.059Z,13.60
2018-10-05T08:53:26.648Z,13.70
2018-10-05T08:55:55.206Z,13.80
2018-10-05T08:58:23.774Z,13.90
2018-10-05T09:00:52.375Z,14.00
2018-10-05T09:03:21.130Z,14.20
2018-10-05T09:05:49.744Z,14.30
2018-10-05T09:08:18.902Z,14.40
2018-10-05T09:10:48.369Z,14.50
2018-10-05T09:13:17.245Z,14.70
2018-10-05T09:15:45.921Z,14.80
2018-10-05T09:18:14.506Z,14.80
2018-10-05T09:20:43.732Z,14.90
2018-10-05T09:23:12.260Z,15.00
2018-10-05T09:25:40.761Z,15.10
2018-10-05T09:28:09.333Z,15.10
2018-10-05T09:30:38.082Z,15.30
2018-10-05T09:33:06.568Z,15.40
2018-10-05T09:35:35.063Z,15.40
2018-10-05T09:38:03.540Z,15.50
2018-10-05T09:40:32.073Z,15.60
2018-10-05T09:43:00.803Z,15.70
2018-10-05T09:45:29.685Z,15.80
2018-10-05T09:47:58.197Z,15.80
2018-10-05T09:50:53.030Z,15.90
2018-10-05T09:53:21.887Z,16.00
2018-10-05T09:55:50.388Z,16.10
2018-10-05T09:58:18.883Z,16.10
2018-10-05T10:00:52.959Z,16.20
2018-10-05T10:03:26.825Z,16.30
2018-10-05T10:05:55.320Z,16.40
2018-10-05T10:08:23.928Z,16.50
2018-10-05T10:10:52.414Z,16.60
2018-10-05T10:13:20.945Z,16.60
2018-10-05T10:15:49.480Z,16.70
2018-10-05T10:18:35.706Z,16.80
2018-10-05T10:21:04.336Z,16.80
2018-10-05T10:23:32.874Z,16.90
2018-10-05T10:26:01.305Z,16.90
2018-10-05T10:28:30.673Z,17.00
2018-10-05T10:31:01.336Z,17.10
2018-10-05T10:33:29.798Z,17.10
2018-10-05T10:35:58.849Z,17.20
2018-10-05T10:38:27.375Z,17.30
2018-10-05T10:40:55.848Z,17.40
2018-10-05T10:43:24.954Z,17.50
2018-10-05T10:45:53.521Z,17.50
2018-10-05T10:48:22.042Z,17.60
2018-10-05T10:50:50.571Z,17.70
2018-10-05T10:53:19.197Z,17.70
2018-10-05T10:55:47.799Z,17.80
2018-10-05T10:58:16.298Z,17.90
2018-10-05T11:00:44.868Z,17.90
2018-10-05T11:03:14.575Z,18.00
2018-10-05T11:05:43.750Z,18.00
2018-10-05T11:08:12.301Z,18.10
2018-10-05T11:10:41.092Z,18.20
2018-10-05T11:13:09.700Z,18.20
2018-10-05T11:15:38.973Z,18.20
2018-10-05T11:18:07.517Z,18.30
2018-10-05T11:20:36.742Z,18.40
2018-10-05T11:23:05.453Z,18.40
2018-10-05T11:25:33.891Z,18.50
2018-10-05T11:28:03.145Z,18.50
2018-10-05T11:30:32.576Z,18.60
2018-10-05T11:33:01.146Z,18.60
2018-10-05T11:35:29.643Z,18.70
2018-10-05T11:37:58.276Z,18.70
2018-10-05T11:40:27.549Z,18.80
2018-10-05T11:42:56.114Z,18.90
2018-10-05T11:45:24.804Z,18.90
2018-10-05T11:47:53.307Z,19.00
2018-10-05T11:50:21.849Z,19.00
2018-10-05T11:52:50.398Z,19.10
2018-10-05T11:55:18.939Z,19.10
2018-10-05T11:57:47.424Z,19.10
2018-10-05T12:00:18.010Z,19.20
2018-10-05T12:02:47.654Z,19.20
2018-10-05T12:05:16.538Z,19.20
2018-10-05T12:07:45.700Z,19.30
2018-10-05T12:10:14.638Z,19.40
2018-10-05T12:12:43.100Z,19.40
2018-10-05T12:15:11.973Z,19.40
2018-10-05T12:17:40.978Z,19.50
2018-10-05T12:20:09.601Z,19.50
2018-10-05T12:22:38.065Z,19.50
2018-10-05T12:25:07.255Z,19.60
2018-10-05T12:27:36.432Z,19.70
2018-10-05T12:30:05.354Z,19.70
2018-10-05T12:32:34.557Z,19.80
2018-10-05T12:35:03.785Z,19.80
2018-10-05T12:37:32.238Z,19.80
2018-10-05T12:40:01.051Z,19.80
2018-10-05T12:42:29.512Z,19.80
2018-10-05T12:44:58.701Z,19.80
2018-10-05T12:47:27.910Z,19.80
2018-10-05T12:49:56.452Z,19.90
2018-10-05T12:52:25.243Z,19.90
2018-10-05T12:54:53.739Z,20.00
2018-10-05T12:57:22.277Z,20.00
2018-10-05T12:59:50.727Z,20.00
2018-10-05T13:02:20.067Z,20.00
2018-10-05T13:04:48.600Z,20.10
2018-10-05T13:07:17.083Z,20.10
2018-10-05T13:09:45.549Z,20.10
2018-10-05T13:12:14.706Z,20.10
2018-10-05T13:14:43.881Z,20.20
2018-10-05T13:17:12.439Z,20.20
2018-10-05T13:19:40.952Z,20.30
2018-10-05T13:22:09.463Z,20.30
2018-10-05T13:24:37.985Z,20.30
2018-10-05T13:27:06.602Z,20.30
2018-10-05T13:29:35.138Z,20.30
2018-10-05T13:32:04.333Z,20.30
2018-10-05T13:34:33.003Z,20.30
2018-10-05T13:37:01.460Z,20.30
2018-10-05T13:39:30.561Z,20.40
2018-10-05T13:41:59.127Z,20.40
2018-10-05T13:44:27.533Z,20.40
2018-10-05T13:46:56.047Z,20.40
2018-10-05T13:49:24.622Z,20.40
2018-10-05T13:51:54.326Z,20.40
2018-10-05T13:54:22.824Z,20.40
2018-10-05T13:56:51.291Z,20.40
2018-10-05T13:59:19.821Z,20.40
2018-10-05T14:01:48.276Z,20.40
2018-10-05T14:04:17.903Z,20.40
2018-10-05T14:06:46.471Z,20.50
2018-10-05T14:09:15.334Z,20.50
2018-10-05T14:11:44.580Z,20.50
2018-10-05T14:14:13.129Z,20.40
2018-10-05T14:16:41.644Z,20.40
2018-10-05T14:19:10.770Z,20.40
2018-10-05T14:21:39.202Z,20.40
2018-10-05T14:24:07.640Z,20.40
2018-10-05T14:26:36.109Z,20.50
2018-10-05T14:29:05.289Z,20.50
2018-10-05T14:31:33.744Z,20.50
2018-10-05T14:34:02.591Z,20.50
2018-10-05T14:36:31.141Z,20.40
2018-10-05T14:38:59.792Z,20.40
2018-10-05T14:41:28.360Z,20.40
2018-10-05T14:43:57.314Z,20.40
2018-10-05T14:46:25.781Z,20.40
2018-10-05T14:48:54.314Z,20.40
2018-10-05T14:51:22.901Z,20.40
2018-10-05T14:53:51.496Z,20.40
2018-10-05T14:56:20.067Z,20.40
2018-10-05T14:58:48.531Z,20.40
2018-10-05T15:01:17.076Z,20.40
2018-10-05T15:03:45.539Z,20.40
2018-10-05T15:06:14.031Z,20.30
2018-10-05T15:08:42.532Z,20.20
2018-10-05T15:11:11.082Z,20.20
2018-10-05T15:13:39.641Z,20.10
2018-10-05T15:16:08.227Z,20.10
2018-10-05T15:18:36.835Z,20.10
2018-10-05T15:21:05.284Z,20.10
2018-10-05T15:23:33.854Z,20.10
2018-10-05T15:26:02.346Z,20.00
2018-10-05T15:28:30.816Z,20.00
2018-10-05T15:30:59.220Z,20.00
2018-10-05T15:33:28.245Z,19.90
2018-10-05T15:35:56.713Z,19.80
2018-10-05T15:38:25.758Z,19.80
2018-10-05T15:40:54.206Z,19.70
2018-10-05T15:43:22.680Z,19.70
2018-10-05T15:45:51.397Z,19.60
2018-10-05T15:48:19.854Z,19.60
2018-10-05T15:50:48.426Z,19.60
2018-10-05T15:53:17.621Z,19.50
2018-10-05T15:55:46.206Z,19.50
2018-10-05T15:58:14.880Z,19.40
2018-10-05T16:00:43.354Z,19.40
2018-10-05T16:03:11.763Z,19.30
2018-10-05T16:05:40.286Z,19.20
2018-10-05T16:08:08.743Z,19.10
2018-10-05T16:10:37.265Z,19.00
2018-10-05T16:13:06.159Z,19.00
2018-10-05T16:15:35.392Z,18.90
2018-10-05T16:18:03.970Z,18.90
2018-10-05T16:20:32.390Z,18.90
2018-10-05T16:23:00.935Z,18.70
2018-10-05T16:25:32.628Z,18.60
2018-10-05T16:28:01.160Z,18.50
2018-10-05T16:30:29.769Z,18.30
2018-10-05T16:32:58.222Z,18.20
2018-10-05T16:35:26.681Z,18.00
2018-10-05T16:37:55.132Z,17.80
2018-10-05T16:40:23.690Z,17.60
2018-10-05T16:42:52.678Z,17.40
2018-10-05T16:45:21.175Z,17.20
2018-10-05T16:47:50.399Z,17.00
2018-10-05T16:50:19.667Z,16.80
2018-10-05T16:52:49.248Z,16.60
2018-10-05T16:55:18.823Z,16.40
2018-10-05T16:57:48.522Z,16.20
2018-10-05T17:00:17.451Z,16.00
2018-10-05T17:02:47.154Z,15.80
2018-10-05T17:06:03.560Z,15.60
2018-10-05T17:08:35.121Z,15.50
2018-10-05T17:11:04.236Z,15.30
2018-10-05T17:13:33.577Z,15.10
2018-10-05T17:16:02.583Z,15.00
2018-10-05T17:18:31.649Z,14.90
2018-10-05T17:21:01.387Z,14.70
2018-10-05T17:23:30.974Z,14.60
2018-10-05T17:25:59.835Z,14.50
2018-10-05T17:28:29.038Z,14.40
2018-10-05T17:30:58.644Z,14.30
2018-10-05T17:33:27.140Z,14.20
2018-10-05T17:35:56.200Z,14.00
2018-10-05T17:38:25.164Z,13.90
2018-10-05T17:40:53.710Z,13.80
2018-10-05T17:43:22.814Z,13.70
2018-10-05T17:45:51.575Z,13.70
2018-10-05T17:48:20.096Z,13.50
2018-10-05T17:50:48.625Z,13.40
2018-10-05T17:53:17.658Z,13.30
2018-10-05T17:55:46.297Z,13.20
2018-10-05T17:58:14.758Z,13.20
2018-10-05T18:00:43.261Z,13.10
2018-10-05T18:03:11.705Z,13.00
2018-10-05T18:05:40.178Z,13.00
2018-10-05T18:08:08.711Z,12.80
2018-10-05T18:10:37.441Z,12.70
2018-10-05T18:13:05.919Z,12.70
2018-10-05T18:15:34.397Z,12.60
2018-10-05T18:18:02.924Z,12.60
2018-10-05T18:20:31.469Z,12.50
2018-10-05T18:22:59.979Z,12.40
2018-10-05T18:25:28.597Z,12.40
2018-10-05T18:27:57.205Z,12.30
2018-10-05T18:30:25.691Z,12.20
2018-10-05T18:32:54.346Z,12.10
2018-10-05T18:35:22.866Z,12.00
2018-10-05T18:37:51.434Z,11.90
2018-10-05T18:40:19.926Z,11.90
2018-10-05T18:42:48.876Z,11.80
2018-10-05T18:45:17.378Z,11.70
2018-10-05T18:47:45.916Z,11.70
2018-10-05T18:50:14.425Z,11.60
2018-10-05T18:52:42.940Z,11.50
2018-10-05T18:55:11.448Z,11.50
2018-10-05T18:57:40.184Z,11.40
2018-10-05T19:00:09.780Z,11.40
2018-10-05T19:02:38.363Z,11.40
2018-10-05T19:05:06.832Z,11.30
2018-10-05T19:07:35.410Z,11.20
2018-10-05T19:10:04.686Z,11.20
2018-10-05T19:12:33.197Z,11.10
2018-10-05T19:15:03.011Z,11.10
2018-10-05T19:17:31.451Z,11.00
2018-10-05T19:19:59.984Z,11.00
2018-10-05T19:22:28.442Z,11.00
2018-10-05T19:24:56.963Z,10.90
2018-10-05T19:27:25.500Z,10.90
2018-10-05T19:29:53.996Z,10.90
2018-10-05T19:32:22.453Z,10.80
2018-10-05T19:34:51.077Z,10.70
2018-10-05T19:37:19.608Z,10.70
2018-10-05T19:39:48.184Z,10.80
2018-10-05T19:42:17.317Z,10.70
2018-10-05T19:44:46.761Z,10.70
2018-10-05T19:47:15.278Z,10.70
2018-10-05T19:49:43.811Z,10.70
2018-10-05T19:52:12.428Z,10.80
2018-10-05T19:54:40.896Z,10.80
2018-10-05T19:57:09.416Z,10.80
2018-10-05T19:59:37.991Z,10.70
2018-10-05T20:02:06.538Z,10.60
2018-10-05T20:04:35.783Z,10.60
2018-10-05T20:07:04.257Z,10.50
2018-10-05T20:09:32.783Z,10.50
2018-10-05T20:12:01.243Z,10.50
2018-10-05T20:14:29.881Z,10.50
2018-10-05T20:16:58.360Z,10.50
2018-10-05T20:19:26.888Z,10.50
2018-10-05T20:21:55.395Z,10.50
2018-10-05T20:24:24.511Z,10.40
2018-10-05T20:26:53.113Z,10.40
2018-10-05T20:29:21.613Z,10.30
2018-10-05T20:31:50.123Z,10.30
2018-10-05T20:34:19.230Z,10.30
2018-10-05T20:36:47.980Z,10.20
2018-10-05T20:39:16.398Z,10.20
2018-10-05T20:41:44.921Z,10.20
2018-10-05T20:44:13.420Z,10.10
2018-10-05T20:46:42.041Z,10.00
2018-10-05T20:49:11.276Z,10.00
2018-10-05T20:51:39.775Z,9.90
2018-10-05T20:54:08.504Z,9.90
2018-10-05T20:56:37.044Z,9.90
2018-10-05T20:59:05.568Z,9.90
2018-10-05T21:01:34.102Z,9.80
2018-10-05T21:04:02.673Z,9.80
2018-10-05T21:06:31.163Z,9.80
2018-10-05T21:08:59.761Z,9.80
2018-10-05T21:11:28.266Z,9.70
2018-10-05T21:13:57.005Z,9.70
2018-10-05T21:16:25.761Z,9.70
2018-10-05T21:18:54.239Z,9.70
2018-10-05T21:21:22.748Z,9.70
2018-10-05T21:23:51.204Z,9.70
2018-10-05T21:26:19.697Z,9.70
2018-10-05T21:28:48.294Z,9.70
2018-10-05T21:31:16.931Z,9.70
2018-10-05T21:33:45.402Z,9.70
2018-10-05T21:36:13.908Z,9.70
2018-10-05T21:38:43.005Z,9.70
2018-10-05T21:41:11.449Z,9.70
2018-10-05T21:43:39.908Z,9.70
2018-10-05T21:46:08.885Z,9.70
2018-10-05T21:48:38.057Z,9.70
2018-10-05T21:51:06.616Z,9.70
2018-10-05T21:53:35.930Z,9.70
2018-10-05T21:56:04.424Z,9.70
2018-10-05T21:58:32.957Z,9.70
2018-10-05T22:01:01.652Z,9.70
2018-10-05T22:03:31.246Z,9.70
2018-10-05T22:06:00.062Z,9.70
2018-10-05T22:08:28.514Z,9.70
2018-10-05T22:10:57.001Z,9.80
2018-10-05T22:13:25.437Z,9.80
2018-10-05T22:15:53.954Z,9.80
2018-10-05T22:18:23.142Z,9.70
2018-10-05T22:20:51.772Z,9.70
2018-10-05T22:23:20.254Z,9.70
2018-10-05T22:25:48.870Z,9.70
2018-10-05T22:28:17.971Z,9.70
2018-10-05T22:30:46.456Z,9.70
2018-10-05T22:33:14.957Z,9.70
2018-10-05T22:35:43.476Z,9.70
2018-10-05T22:38:11.961Z,9.70
2018-10-05T22:40:40.512Z,9.70
2018-10-05T22:43:09.669Z,9.60
2018-10-05T22:45:38.182Z,9.60
2018-10-05T22:48:06.860Z,9.50
2018-10-05T22:50:36.165Z,9.50
2018-10-05T22:53:05.395Z,9.40
2018-10-05T22:55:33.958Z,9.30
2018-10-05T22:58:02.553Z,9.30
2018-10-05T23:00:31.007Z,9.20
2018-10-05T23:02:59.834Z,9.20
2018-10-05T23:05:28.408Z,9.20
2018-10-05T23:07:56.871Z,9.20
2018-10-05T23:10:25.390Z,9.20
2018-10-05T23:12:53.843Z,9.20
2018-10-05T23:15:22.418Z,9.20
2018-10-05T23:17:50.999Z,9.20
2018-10-05T23:20:19.428Z,9.20
2018-10-05T23:22:47.913Z,9.30
2018-10-05T23:25:16.402Z,9.20
2018-10-05T23:27:44.915Z,9.20
2018-10-05T23:30:13.909Z,9.30
2018-10-05T23:32:43.178Z,9.30
2018-10-05T23:35:11.617Z,9.30
2018-10-05T23:37:40.585Z,9.20
2018-10-05T23:40:09.148Z,9.30
2018-10-05T23:42:37.695Z,9.30
2018-10-05T23:45:06.249Z,9.30
2018-10-05T23:47:34.702Z,9.30
2018-10-05T23:50:03.750Z,9.40
2018-10-05T23:52:48.687Z,9.40
2018-10-05T23:55:17.241Z,9.50
2018-10-05T23:57:45.821Z,9.60
